IBB258 GCLP-GCFV
Flight info
| Callsign | IBB258 |
|---|---|
| Flight time | 0h 21m |
| Altitude | 14000 |
| Route | KOPUD |
| Aircraft | E195/M-SDFGRY/LB1 |
Departure
| Time | 2026-04-28 16:15 |
|---|---|
| Airport | Gran Canaria Airport (GCLP) |
Arrival
| Time | 2026-04-28 16:36 |
|---|---|
| Airport | Fuerteventura Airport (GCFV) |
| Time | Latitude | Longitude | Altitude | Speed | Heading |
|---|---|---|---|---|---|
| 2026-04-28 15:44 | 27.93883 | -15.38634 | 84 ft | 0 kts | 291° |
| 2026-04-28 16:00 | 27.93889 | -15.38652 | 82 ft | 6 kts | 292° |
| 2026-04-28 16:00 | 27.93881 | -15.38707 | 83 ft | 10 kts | 217° |
| 2026-04-28 16:00 | 27.93806 | -15.38743 | 82 ft | 12 kts | 203° |
| 2026-04-28 16:01 | 27.93780 | -15.38754 | 83 ft | 0 kts | 200° |
| 2026-04-28 16:03 | 27.93779 | -15.38754 | 83 ft | 1 kts | 200° |
| 2026-04-28 16:03 | 27.93755 | -15.38765 | 84 ft | 9 kts | 201° |
| 2026-04-28 16:04 | 27.93679 | -15.38798 | 86 ft | 13 kts | 202° |
| 2026-04-28 16:04 | 27.93592 | -15.38836 | 86 ft | 14 kts | 201° |
| 2026-04-28 16:04 | 27.93495 | -15.38874 | 86 ft | 16 kts | 197° |
| 2026-04-28 16:04 | 27.93388 | -15.38919 | 83 ft | 17 kts | 201° |
| 2026-04-28 16:05 | 27.93275 | -15.38970 | 84 ft | 18 kts | 200° |
| 2026-04-28 16:05 | 27.93157 | -15.39022 | 80 ft | 19 kts | 201° |
| 2026-04-28 16:05 | 27.93035 | -15.39076 | 84 ft | 19 kts | 201° |
| 2026-04-28 16:05 | 27.92935 | -15.39120 | 85 ft | 7 kts | 201° |
| 2026-04-28 16:06 | 27.92891 | -15.39123 | 85 ft | 7 kts | 156° |
| 2026-04-28 16:06 | 27.92862 | -15.39071 | 84 ft | 11 kts | 112° |
| 2026-04-28 16:06 | 27.92786 | -15.39036 | 84 ft | 18 kts | 199° |
| 2026-04-28 16:06 | 27.92661 | -15.39089 | 89 ft | 19 kts | 200° |
| 2026-04-28 16:07 | 27.92536 | -15.39146 | 92 ft | 20 kts | 201° |
| 2026-04-28 16:07 | 27.92409 | -15.39202 | 96 ft | 20 kts | 201° |
| 2026-04-28 16:07 | 27.92141 | -15.39321 | 97 ft | 24 kts | 202° |
| 2026-04-28 16:08 | 27.91978 | -15.39392 | 93 ft | 24 kts | 201° |
| 2026-04-28 16:08 | 27.91904 | -15.39408 | 90 ft | 0 kts | 164° |
| 2026-04-28 16:11 | 27.91848 | -15.39296 | 86 ft | 17 kts | 111° |
| 2026-04-28 16:11 | 27.91841 | -15.39025 | 73 ft | 17 kts | 19° |
| 2026-04-28 16:12 | 27.91877 | -15.39009 | 69 ft | 0 kts | 21° |
| 2026-04-28 16:14 | 27.92071 | -15.38924 | 65 ft | 66 kts | 21° |
| 2026-04-28 16:14 | 27.93707 | -15.38190 | 410 ft | 170 kts | 23° |
| 2026-04-28 16:15 | 27.95996 | -15.37065 | 785 ft | 172 kts | 35° |
| 2026-04-28 16:15 | 27.96876 | -15.36106 | 689 ft | 183 kts | 40° |
| 2026-04-28 16:15 | 27.97853 | -15.35221 | 692 ft | 171 kts | 36° |
| 2026-04-28 16:16 | 27.99560 | -15.33440 | 837 ft | 190 kts | 47° |
| 2026-04-28 16:16 | 28.00342 | -15.31936 | 826 ft | 253 kts | 65° |
| 2026-04-28 16:17 | 28.01211 | -15.27815 | 2969 ft | 268 kts | 75° |
| 2026-04-28 16:17 | 28.01623 | -15.25713 | 4011 ft | 272 kts | 76° |
| 2026-04-28 16:17 | 28.02027 | -15.23591 | 5085 ft | 274 kts | 76° |
| 2026-04-28 16:17 | 28.02424 | -15.21452 | 6113 ft | 278 kts | 76° |
| 2026-04-28 16:18 | 28.02819 | -15.19289 | 7059 ft | 281 kts | 77° |
| 2026-04-28 16:18 | 28.03218 | -15.17091 | 7949 ft | 289 kts | 76° |
| 2026-04-28 16:18 | 28.03621 | -15.14847 | 8827 ft | 295 kts | 76° |
| 2026-04-28 16:18 | 28.04026 | -15.12561 | 9792 ft | 299 kts | 77° |
| 2026-04-28 16:19 | 28.04442 | -15.10215 | 10400 ft | 319 kts | 78° |
| 2026-04-28 16:19 | 28.04859 | -15.07724 | 11160 ft | 327 kts | 77° |
| 2026-04-28 16:19 | 28.05301 | -15.05178 | 12012 ft | 331 kts | 78° |
| 2026-04-28 16:19 | 28.05744 | -15.02583 | 12837 ft | 338 kts | 78° |
| 2026-04-28 16:20 | 28.06193 | -14.99912 | 13118 ft | 361 kts | 79° |
| 2026-04-28 16:20 | 28.06642 | -14.97092 | 13120 ft | 366 kts | 79° |
| 2026-04-28 16:20 | 28.07105 | -14.94188 | 13130 ft | 374 kts | 79° |
| 2026-04-28 16:20 | 28.07571 | -14.91265 | 13142 ft | 379 kts | 79° |
| 2026-04-28 16:21 | 28.08036 | -14.88341 | 13154 ft | 380 kts | 79° |
| 2026-04-28 16:21 | 28.08506 | -14.85381 | 13150 ft | 383 kts | 79° |
| 2026-04-28 16:21 | 28.08975 | -14.82417 | 13095 ft | 381 kts | 79° |
| 2026-04-28 16:21 | 28.09434 | -14.79498 | 13047 ft | 384 kts | 79° |
| 2026-04-28 16:22 | 28.09906 | -14.76527 | 13037 ft | 382 kts | 79° |
| 2026-04-28 16:22 | 28.10373 | -14.73578 | 13035 ft | 382 kts | 79° |
| 2026-04-28 16:22 | 28.10839 | -14.70609 | 13038 ft | 383 kts | 78° |
| 2026-04-28 16:22 | 28.11305 | -14.67653 | 13033 ft | 379 kts | 79° |
| 2026-04-28 16:23 | 28.11769 | -14.64701 | 13037 ft | 383 kts | 79° |
| 2026-04-28 16:23 | 28.12234 | -14.61737 | 13034 ft | 383 kts | 79° |
| 2026-04-28 16:23 | 28.12695 | -14.58784 | 13032 ft | 381 kts | 79° |
| 2026-04-28 16:23 | 28.13161 | -14.55814 | 13034 ft | 382 kts | 79° |
| 2026-04-28 16:24 | 28.13622 | -14.52867 | 13031 ft | 379 kts | 79° |
| 2026-04-28 16:24 | 28.14080 | -14.49922 | 13029 ft | 378 kts | 81° |
| 2026-04-28 16:24 | 28.14273 | -14.47032 | 13013 ft | 358 kts | 86° |
| 2026-04-28 16:24 | 28.14422 | -14.44293 | 12680 ft | 342 kts | 85° |
| 2026-04-28 16:25 | 28.14584 | -14.41671 | 12093 ft | 326 kts | 85° |
| 2026-04-28 16:25 | 28.14735 | -14.39162 | 11516 ft | 313 kts | 85° |
| 2026-04-28 16:25 | 28.14880 | -14.36743 | 10977 ft | 302 kts | 85° |
| 2026-04-28 16:25 | 28.15021 | -14.34402 | 10418 ft | 295 kts | 84° |
| 2026-04-28 16:26 | 28.15161 | -14.32115 | 10066 ft | 290 kts | 84° |
| 2026-04-28 16:26 | 28.15301 | -14.29837 | 9691 ft | 290 kts | 84° |
| 2026-04-28 16:26 | 28.15442 | -14.27559 | 9284 ft | 289 kts | 84° |
| 2026-04-28 16:26 | 28.15579 | -14.25329 | 8871 ft | 281 kts | 84° |
| 2026-04-28 16:27 | 28.15717 | -14.23117 | 8475 ft | 281 kts | 84° |
| 2026-04-28 16:27 | 28.15853 | -14.20904 | 8084 ft | 281 kts | 84° |
| 2026-04-28 16:27 | 28.16245 | -14.16506 | 7303 ft | 280 kts | 80° |
| 2026-04-28 16:28 | 28.16660 | -14.14369 | 6930 ft | 277 kts | 69° |
| 2026-04-28 16:28 | 28.17029 | -14.13001 | 6666 ft | 270 kts | 70° |
| 2026-04-28 16:28 | 28.17686 | -14.10343 | 6118 ft | 256 kts | 72° |
| 2026-04-28 16:28 | 28.18163 | -14.08413 | 5721 ft | 253 kts | 71° |
| 2026-04-28 16:29 | 28.19071 | -14.04679 | 4908 ft | 238 kts | 73° |
| 2026-04-28 16:29 | 28.19924 | -14.01123 | 4093 ft | 231 kts | 72° |
| 2026-04-28 16:30 | 28.20337 | -13.99391 | 3902 ft | 226 kts | 72° |
| 2026-04-28 16:30 | 28.20754 | -13.97653 | 3798 ft | 231 kts | 73° |
| 2026-04-28 16:30 | 28.21172 | -13.95889 | 3681 ft | 231 kts | 72° |
| 2026-04-28 16:30 | 28.21589 | -13.94132 | 3562 ft | 230 kts | 72° |
| 2026-04-28 16:31 | 28.22007 | -13.92382 | 3439 ft | 229 kts | 72° |
| 2026-04-28 16:31 | 28.22421 | -13.90640 | 3355 ft | 228 kts | 73° |
| 2026-04-28 16:31 | 28.23004 | -13.89001 | 3326 ft | 223 kts | 51° |
| 2026-04-28 16:31 | 28.24230 | -13.87989 | 3300 ft | 222 kts | 17° |
| 2026-04-28 16:32 | 28.25744 | -13.87682 | 3295 ft | 223 kts | 6° |
| 2026-04-28 16:32 | 28.28789 | -13.86947 | 3038 ft | 226 kts | 8° |
| 2026-04-28 16:32 | 28.30339 | -13.86835 | 2739 ft | 220 kts | 357° |
| 2026-04-28 16:33 | 28.31803 | -13.86869 | 2452 ft | 207 kts | 359° |
| 2026-04-28 16:33 | 28.32287 | -13.86844 | 2367 ft | 205 kts | 0° |
| 2026-04-28 16:33 | 28.34595 | -13.86715 | 1919 ft | 193 kts | 358° |
| 2026-04-28 16:33 | 28.35881 | -13.86695 | 1681 ft | 175 kts | 357° |
| 2026-04-28 16:34 | 28.37039 | -13.86649 | 1438 ft | 160 kts | 359° |
| 2026-04-28 16:34 | 28.38116 | -13.86608 | 1234 ft | 149 kts | 359° |
| 2026-04-28 16:34 | 28.39164 | -13.86576 | 1044 ft | 151 kts | 356° |
| 2026-04-28 16:34 | 28.40193 | -13.86546 | 809 ft | 143 kts | 356° |
| 2026-04-28 16:35 | 28.41182 | -13.86515 | 656 ft | 144 kts | 359° |
| 2026-04-28 16:35 | 28.42232 | -13.86476 | 477 ft | 153 kts | 359° |
| 2026-04-28 16:35 | 28.43280 | -13.86454 | 295 ft | 149 kts | 1° |
| 2026-04-28 16:35 | 28.44287 | -13.86403 | 90 ft | 139 kts | 357° |
| 2026-04-28 16:36 | 28.45171 | -13.86383 | 83 ft | 112 kts | 3° |
| 2026-04-28 16:36 | 28.45776 | -13.86359 | 90 ft | 59 kts | 1° |
| 2026-04-28 16:36 | 28.46071 | -13.86430 | 98 ft | 23 kts | 328° |
| 2026-04-28 16:36 | 28.46148 | -13.86503 | 98 ft | 2 kts | 264° |
| 2026-04-28 16:37 | 28.46136 | -13.86523 | 98 ft | 7 kts | 230° |
| 2026-04-28 16:37 | 28.46060 | -13.86544 | 97 ft | 17 kts | 182° |
| 2026-04-28 16:37 | 28.45941 | -13.86541 | 94 ft | 16 kts | 186° |
| 2026-04-28 16:38 | 28.45660 | -13.86555 | 90 ft | 21 kts | 181° |
| 2026-04-28 16:38 | 28.45536 | -13.86570 | 88 ft | 10 kts | 214° |
| 2026-04-28 16:38 | 28.45533 | -13.86632 | 88 ft | 9 kts | 272° |
| 2026-04-28 16:38 | 28.45534 | -13.86654 | 87 ft | 0 kts | 270° |